createdAt,value
2023-05-02T00:02:19.719Z,3.45
2023-05-02T00:04:46.744Z,3.28
2023-05-02T00:07:13.269Z,3.10
2023-05-02T00:09:39.750Z,2.47
2023-05-02T00:12:06.236Z,3.35
2023-05-02T00:14:32.959Z,3.17
2023-05-02T00:16:59.477Z,3.28
2023-05-02T00:19:26.071Z,3.13
2023-05-02T00:21:52.580Z,3.15
2023-05-02T00:24:19.615Z,2.45
2023-05-02T00:26:46.393Z,3.00
2023-05-02T00:29:12.900Z,3.40
2023-05-02T00:31:41.208Z,3.38
2023-05-02T00:34:07.788Z,3.03
2023-05-02T00:36:34.346Z,4.82
2023-05-02T00:39:00.791Z,4.30
2023-05-02T00:41:28.285Z,3.63
2023-05-02T00:43:54.770Z,2.92
2023-05-02T00:46:21.273Z,3.15
2023-05-02T00:48:47.787Z,3.15
2023-05-02T00:51:14.289Z,3.63
2023-05-02T00:53:41.024Z,3.53
2023-05-02T00:56:07.943Z,3.28
2023-05-02T00:58:34.525Z,3.17
2023-05-02T01:01:39.344Z,3.63
2023-05-02T01:04:19.553Z,3.45
2023-05-02T01:07:00.520Z,3.70
2023-05-02T01:09:27.517Z,3.38
2023-05-02T01:11:59.678Z,2.92
2023-05-02T01:14:26.165Z,2.72
2023-05-02T01:16:52.957Z,3.13
2023-05-02T01:19:26.861Z,4.45
2023-05-02T01:21:54.250Z,3.30
2023-05-02T01:24:29.693Z,3.20
2023-05-02T01:27:16.533Z,3.22
2023-05-02T01:29:43.056Z,3.78
2023-05-02T01:32:09.512Z,2.58
2023-05-02T01:34:36.942Z,3.47
2023-05-02T01:37:03.840Z,3.20
2023-05-02T01:39:30.294Z,2.95
2023-05-02T01:41:56.974Z,2.88
2023-05-02T01:44:23.759Z,3.05
2023-05-02T01:46:50.315Z,3.42
2023-05-02T01:49:16.812Z,4.38
2023-05-02T01:51:44.632Z,4.53
2023-05-02T01:54:11.090Z,3.30
2023-05-02T01:56:38.269Z,3.50
2023-05-02T01:59:06.152Z,4.28
2023-05-02T02:01:32.635Z,4.35
2023-05-02T02:03:59.378Z,3.75
2023-05-02T02:06:26.208Z,3.38
2023-05-02T02:08:52.812Z,2.78
2023-05-02T02:11:24.739Z,3.83
2023-05-02T02:13:55.263Z,3.70
2023-05-02T02:16:25.024Z,3.28
2023-05-02T02:18:51.591Z,3.40
2023-05-02T02:21:18.892Z,3.05
2023-05-02T02:23:47.485Z,3.08
2023-05-02T02:26:13.977Z,2.50
2023-05-02T02:28:40.484Z,2.80
2023-05-02T02:31:07.074Z,3.50
2023-05-02T02:33:33.613Z,3.33
2023-05-02T02:36:10.498Z,2.92
2023-05-02T02:38:43.341Z,3.30
2023-05-02T02:41:13.743Z,3.72
2023-05-02T02:44:04.653Z,2.92
2023-05-02T02:46:50.999Z,3.30
2023-05-02T02:49:39.540Z,2.45
2023-05-02T02:52:12.228Z,3.83
2023-05-02T02:55:09.354Z,4.47
2023-05-02T02:58:02.527Z,2.95
2023-05-02T03:00:29.055Z,2.75
2023-05-02T03:02:56.607Z,3.63
2023-05-02T03:05:23.195Z,4.38
2023-05-02T03:07:49.658Z,3.65
2023-05-02T03:10:16.464Z,3.90
2023-05-02T03:12:43.702Z,3.53
2023-05-02T03:15:31.811Z,3.85
2023-05-02T03:17:58.342Z,3.65
2023-05-02T03:20:24.828Z,3.22
2023-05-02T03:22:52.235Z,5.03
2023-05-02T03:25:18.680Z,3.03
2023-05-02T03:27:45.186Z,4.30
2023-05-02T03:30:11.831Z,2.90
2023-05-02T03:32:38.337Z,3.17
2023-05-02T03:35:05.710Z,2.78
2023-05-02T03:37:34.280Z,2.58
2023-05-02T03:40:01.043Z,3.05
2023-05-02T03:42:27.804Z,3.30
2023-05-02T03:44:54.361Z,2.45
2023-05-02T03:47:20.896Z,2.30
2023-05-02T03:49:47.477Z,2.42
2023-05-02T03:52:14.026Z,2.95
2023-05-02T03:54:40.495Z,6.15
2023-05-02T03:57:08.027Z,2.58
2023-05-02T03:59:35.156Z,2.67
2023-05-02T04:02:01.776Z,2.70
2023-05-02T04:04:28.351Z,2.78
2023-05-02T04:06:54.951Z,3.33
2023-05-02T04:09:25.148Z,3.17
2023-05-02T04:11:52.182Z,2.67
2023-05-02T04:14:18.799Z,3.55
2023-05-02T04:16:49.599Z,3.30
2023-05-02T04:19:16.527Z,2.83
2023-05-02T04:21:42.995Z,3.45
2023-05-02T04:24:09.456Z,3.25
2023-05-02T04:26:35.980Z,2.40
2023-05-02T04:29:02.475Z,3.00
2023-05-02T04:31:29.284Z,3.60
2023-05-02T04:33:55.850Z,3.40
2023-05-02T04:36:22.515Z,2.67
2023-05-02T04:38:48.964Z,2.83
2023-05-02T04:41:15.555Z,3.55
2023-05-02T04:43:42.182Z,1.98
2023-05-02T04:46:08.734Z,2.83
2023-05-02T04:48:35.234Z,2.97
2023-05-02T04:51:01.754Z,3.35
2023-05-02T04:53:28.558Z,2.85
2023-05-02T04:55:55.039Z,2.40
2023-05-02T04:58:21.488Z,2.88
2023-05-02T05:00:47.946Z,2.30
2023-05-02T05:03:14.514Z,2.40
2023-05-02T05:05:41.150Z,2.65
2023-05-02T05:08:08.050Z,2.83
2023-05-02T05:10:34.535Z,2.45
2023-05-02T05:13:00.999Z,3.00
2023-05-02T05:15:27.525Z,3.13
2023-05-02T05:17:54.100Z,3.20
2023-05-02T05:20:20.592Z,3.05
2023-05-02T05:22:47.095Z,3.17
2023-05-02T05:25:13.558Z,2.70
2023-05-02T05:27:40.427Z,3.03
2023-05-02T05:30:08.855Z,3.03
2023-05-02T05:32:35.711Z,3.00
2023-05-02T05:35:02.363Z,2.85
2023-05-02T05:37:28.828Z,4.15
2023-05-02T05:39:55.358Z,3.42
2023-05-02T05:42:21.833Z,3.53
2023-05-02T05:44:48.315Z,3.50
2023-05-02T05:47:19.846Z,3.00
2023-05-02T05:49:46.327Z,2.42
2023-05-02T05:52:12.812Z,3.10
2023-05-02T05:54:39.315Z,3.60
2023-05-02T05:57:05.782Z,3.22
2023-05-02T05:59:35.241Z,3.45
2023-05-02T06:02:01.876Z,3.60
2023-05-02T06:04:28.354Z,3.17
2023-05-02T06:06:55.260Z,3.50
2023-05-02T06:09:21.812Z,3.75
2023-05-02T06:11:48.394Z,3.75
2023-05-02T06:14:14.872Z,3.40
2023-05-02T06:16:42.080Z,4.03
2023-05-02T06:19:09.031Z,3.83
2023-05-02T06:21:38.620Z,3.92
2023-05-02T06:24:05.361Z,6.38
2023-05-02T06:26:31.846Z,7.00
2023-05-02T06:28:58.303Z,4.95
2023-05-02T06:31:24.820Z,3.83
2023-05-02T06:33:52.272Z,3.35
2023-05-02T06:36:18.729Z,2.80
2023-05-02T06:38:45.202Z,2.90
2023-05-02T06:41:18.429Z,3.10
2023-05-02T06:43:45.007Z,3.30
2023-05-02T06:46:11.534Z,3.28
2023-05-02T06:48:38.120Z,5.22
2023-05-02T06:51:04.592Z,5.10
2023-05-02T06:53:33.056Z,5.05
2023-05-02T06:55:59.879Z,5.15
2023-05-02T06:58:26.398Z,5.97
2023-05-02T07:00:52.943Z,5.53
2023-05-02T07:03:19.448Z,6.40
2023-05-02T07:05:45.900Z,5.60
2023-05-02T07:08:12.432Z,5.32
2023-05-02T07:10:38.899Z,5.25
2023-05-02T07:13:05.528Z,5.80
2023-05-02T07:15:32.006Z,5.20
2023-05-02T07:17:58.487Z,6.57
2023-05-02T07:20:25.046Z,8.80
2023-05-02T07:22:51.604Z,7.38
2023-05-02T07:25:18.077Z,6.50
2023-05-02T07:27:44.557Z,7.15
2023-05-02T07:30:11.512Z,7.43
2023-05-02T07:32:38.036Z,7.13
2023-05-02T07:35:04.779Z,6.63
2023-05-02T07:37:37.426Z,7.50
2023-05-02T07:40:04.468Z,8.73
2023-05-02T07:42:31.297Z,7.10
2023-05-02T07:44:58.505Z,6.72
2023-05-02T07:47:26.506Z,6.40
2023-05-02T07:49:56.019Z,7.75
2023-05-02T07:52:22.544Z,7.82
2023-05-02T07:54:49.690Z,6.85
2023-05-02T07:57:16.267Z,8.05
2023-05-02T07:59:42.743Z,7.50
2023-05-02T08:02:09.247Z,7.80
2023-05-02T08:04:35.864Z,8.32
2023-05-02T08:07:03.003Z,9.10
2023-05-02T08:09:29.472Z,7.90
2023-05-02T08:11:55.938Z,9.00
2023-05-02T08:14:22.488Z,7.82
2023-05-02T08:16:49.149Z,7.75
2023-05-02T08:19:15.854Z,8.10
2023-05-02T08:21:42.529Z,9.65
2023-05-02T08:24:08.998Z,9.15
2023-05-02T08:26:35.476Z,8.63
2023-05-02T08:29:03.186Z,8.23
2023-05-02T08:31:29.787Z,8.73
2023-05-02T08:33:56.426Z,8.77
2023-05-02T08:36:22.955Z,8.77
2023-05-02T08:38:49.562Z,9.55
2023-05-02T08:41:19.341Z,8.20
2023-05-02T08:43:46.272Z,10.35
2023-05-02T08:46:13.647Z,9.20
2023-05-02T08:48:41.507Z,10.60
2023-05-02T08:51:13.766Z,10.18
2023-05-02T08:53:40.574Z,9.15
2023-05-02T08:56:07.631Z,9.13
2023-05-02T08:58:39.065Z,9.02
2023-05-02T09:01:24.231Z,8.75
2023-05-02T09:03:52.228Z,9.65
2023-05-02T09:06:20.733Z,8.27
2023-05-02T09:08:52.290Z,9.15
2023-05-02T09:11:18.889Z,9.18
2023-05-02T09:13:49.224Z,9.25
2023-05-02T09:16:38.271Z,9.35
2023-05-02T09:19:04.811Z,9.73
2023-05-02T09:21:40.174Z,10.95
2023-05-02T09:24:18.079Z,9.00
2023-05-02T09:27:05.135Z,8.95
2023-05-02T09:29:36.240Z,9.32
2023-05-02T09:32:03.977Z,8.40
2023-05-02T09:34:33.722Z,8.30
2023-05-02T09:37:00.243Z,10.55
2023-05-02T09:39:30.849Z,9.55
2023-05-02T09:41:57.956Z,8.63
2023-05-02T09:44:25.792Z,8.80
2023-05-02T09:46:53.519Z,8.70
2023-05-02T09:49:20.161Z,7.30
2023-05-02T09:51:47.387Z,7.38
2023-05-02T09:54:37.302Z,7.45
2023-05-02T09:57:03.892Z,8.52
2023-05-02T09:59:30.761Z,6.55
2023-05-02T10:02:02.560Z,7.03
2023-05-02T10:04:32.446Z,7.00
2023-05-02T10:06:59.044Z,6.93
2023-05-02T10:09:25.818Z,5.80
2023-05-02T10:11:54.025Z,5.70
2023-05-02T10:14:23.153Z,5.20
2023-05-02T10:17:05.064Z,7.90
2023-05-02T10:19:43.717Z,5.32
2023-05-02T10:22:10.260Z,5.50
2023-05-02T10:24:37.370Z,5.50
2023-05-02T10:27:04.601Z,5.50
2023-05-02T10:29:31.777Z,5.13
2023-05-02T10:31:58.894Z,5.10
2023-05-02T10:34:25.391Z,6.75
2023-05-02T10:36:51.851Z,10.77
2023-05-02T10:39:19.626Z,19.00
2023-05-02T10:41:46.173Z,5.22
2023-05-02T10:44:12.654Z,5.53
2023-05-02T10:46:43.207Z,4.75
2023-05-02T10:49:13.527Z,4.45
2023-05-02T10:51:42.065Z,5.13
2023-05-02T10:54:17.978Z,4.97
2023-05-02T10:57:02.760Z,5.20
2023-05-02T10:59:30.519Z,5.68
2023-05-02T11:01:57.645Z,6.55
2023-05-02T11:04:24.218Z,8.00
2023-05-02T11:06:56.500Z,6.40
2023-05-02T11:09:22.904Z,6.68
2023-05-02T11:11:50.602Z,9.30
2023-05-02T11:14:26.104Z,8.45
2023-05-02T11:16:59.056Z,11.20
2023-05-02T11:19:26.017Z,10.47
2023-05-02T11:21:57.561Z,5.28
2023-05-02T11:24:40.053Z,10.68
2023-05-02T11:27:31.503Z,6.30
2023-05-02T11:29:58.382Z,3.83
2023-05-02T11:32:26.901Z,4.15
2023-05-02T11:34:55.509Z,3.30
2023-05-02T11:37:22.297Z,3.80
2023-05-02T11:39:48.990Z,3.97
2023-05-02T11:42:29.300Z,3.80
2023-05-02T11:44:59.920Z,4.10
2023-05-02T11:47:27.532Z,4.35
2023-05-02T11:49:57.546Z,3.42
2023-05-02T11:52:24.534Z,3.67
2023-05-02T11:54:54.334Z,3.17
2023-05-02T11:57:21.162Z,3.13
2023-05-02T11:59:51.686Z,3.83
2023-05-02T12:02:18.211Z,8.90
2023-05-02T12:04:44.854Z,2.40
2023-05-02T12:07:12.377Z,2.88
2023-05-02T12:09:55.337Z,3.15
2023-05-02T12:12:22.223Z,3.15
2023-05-02T12:14:48.703Z,3.55
2023-05-02T12:17:15.227Z,11.43
2023-05-02T12:19:41.718Z,2.47
2023-05-02T12:22:08.416Z,3.13
2023-05-02T12:24:36.169Z,4.68
2023-05-02T12:27:15.877Z,2.25
2023-05-02T12:29:46.374Z,2.10
2023-05-02T12:32:13.437Z,2.47
2023-05-02T12:34:40.284Z,2.42
2023-05-02T12:37:07.308Z,3.28
2023-05-02T12:39:41.003Z,2.67
2023-05-02T12:42:14.691Z,4.25
2023-05-02T12:44:44.464Z,2.67
2023-05-02T12:47:12.106Z,3.33
2023-05-02T12:49:59.799Z,2.65
2023-05-02T12:52:57.364Z,5.15
2023-05-02T12:55:24.690Z,5.78
2023-05-02T12:57:51.373Z,1.58
2023-05-02T13:00:18.272Z,4.38
2023-05-02T13:02:44.864Z,4.18
2023-05-02T13:05:15.315Z,4.53
2023-05-02T13:07:41.848Z,2.30
2023-05-02T13:10:09.163Z,1.50
2023-05-02T13:12:37.700Z,2.10
2023-05-02T13:15:05.118Z,2.30
2023-05-02T13:17:31.881Z,2.22
2023-05-02T13:20:01.849Z,3.83
2023-05-02T13:22:28.858Z,3.38
2023-05-02T13:24:55.890Z,2.20
2023-05-02T13:27:25.422Z,2.35
2023-05-02T13:29:51.956Z,3.10
2023-05-02T13:32:18.683Z,3.15
2023-05-02T13:34:45.280Z,2.47
2023-05-02T13:37:11.836Z,2.45
2023-05-02T13:39:38.295Z,2.83
2023-05-02T13:42:06.078Z,3.25
2023-05-02T13:44:32.895Z,2.55
2023-05-02T13:46:59.377Z,3.40
2023-05-02T13:49:25.968Z,3.00
2023-05-02T13:51:52.530Z,2.42
2023-05-02T13:54:18.986Z,2.53
2023-05-02T13:56:45.487Z,2.60
2023-05-02T13:59:11.937Z,2.67
2023-05-02T14:01:40.485Z,2.35
2023-05-02T14:04:08.617Z,6.82
2023-05-02T14:06:35.995Z,2.60
2023-05-02T14:09:02.712Z,3.45
2023-05-02T14:11:29.205Z,4.63
2023-05-02T14:13:58.122Z,4.40
2023-05-02T14:16:24.678Z,4.70
2023-05-02T14:18:51.177Z,4.95
2023-05-02T14:21:17.707Z,4.97
2023-05-02T14:23:44.187Z,4.05
2023-05-02T14:26:10.683Z,6.32
2023-05-02T14:28:38.324Z,4.20
2023-05-02T14:31:05.646Z,3.88
2023-05-02T14:33:32.205Z,3.00
2023-05-02T14:35:58.673Z,2.20
2023-05-02T14:38:25.128Z,3.40
2023-05-02T14:40:51.661Z,3.45
2023-05-02T14:43:18.222Z,3.22
2023-05-02T14:45:44.672Z,3.10
2023-05-02T14:48:13.917Z,2.72
2023-05-02T14:50:40.977Z,3.38
2023-05-02T14:53:07.495Z,3.13
2023-05-02T14:55:38.859Z,4.47
2023-05-02T14:58:07.789Z,2.20
2023-05-02T15:00:35.212Z,2.50
2023-05-02T15:03:01.979Z,2.20
2023-05-02T15:05:29.449Z,2.17
2023-05-02T15:07:55.955Z,2.15
2023-05-02T15:10:22.453Z,1.83
2023-05-02T15:12:50.870Z,2.22
2023-05-02T15:15:18.033Z,2.03
2023-05-02T15:17:44.878Z,2.53
2023-05-02T15:20:12.474Z,2.00
2023-05-02T15:22:38.920Z,2.45
2023-05-02T15:25:06.029Z,2.03
2023-05-02T15:27:32.622Z,2.00
2023-05-02T15:29:59.568Z,2.70
2023-05-02T15:32:26.189Z,1.92
2023-05-02T15:34:52.679Z,2.25
2023-05-02T15:37:19.164Z,2.95
2023-05-02T15:39:45.702Z,2.60
2023-05-02T15:42:12.228Z,2.25
2023-05-02T15:44:38.716Z,2.88
2023-05-02T15:47:05.471Z,2.25
2023-05-02T15:49:33.281Z,2.67
2023-05-02T15:52:00.572Z,2.33
2023-05-02T15:54:27.113Z,4.15
2023-05-02T15:56:53.651Z,2.75
2023-05-02T15:59:20.236Z,2.45
2023-05-02T16:01:47.808Z,3.17
2023-05-02T16:04:14.465Z,2.00
2023-05-02T16:06:41.737Z,1.90
2023-05-02T16:09:08.369Z,2.17
2023-05-02T16:11:34.897Z,1.70
2023-05-02T16:14:01.449Z,2.38
2023-05-02T16:16:27.986Z,1.60
2023-05-02T16:18:54.542Z,1.13
2023-05-02T16:21:21.122Z,1.30
2023-05-02T16:23:47.594Z,2.08
2023-05-02T16:26:14.139Z,2.30
2023-05-02T16:28:40.774Z,2.20
2023-05-02T16:31:08.096Z,1.77
2023-05-02T16:33:34.584Z,1.40
2023-05-02T16:36:02.244Z,2.03
2023-05-02T16:38:28.723Z,1.85
2023-05-02T16:40:55.246Z,2.97
2023-05-02T16:43:21.730Z,2.33
2023-05-02T16:45:48.190Z,1.77
2023-05-02T16:48:14.773Z,2.00
2023-05-02T16:50:41.376Z,2.33
2023-05-02T16:53:07.976Z,1.90
2023-05-02T16:55:34.599Z,2.50
2023-05-02T16:58:01.053Z,2.38
2023-05-02T17:00:27.532Z,3.08
2023-05-02T17:02:56.861Z,2.17
2023-05-02T17:05:23.519Z,2.85
2023-05-02T17:07:49.994Z,2.20
2023-05-02T17:10:16.920Z,2.67
2023-05-02T17:12:43.953Z,2.38
2023-05-02T17:15:10.677Z,2.25
2023-05-02T17:17:37.146Z,2.30
2023-05-02T17:20:03.974Z,3.00
2023-05-02T17:22:30.990Z,2.40
2023-05-02T17:24:57.554Z,2.45
2023-05-02T17:27:24.082Z,2.95
2023-05-02T17:29:50.748Z,4.95
2023-05-02T17:32:17.356Z,4.05
2023-05-02T17:34:44.674Z,3.40
2023-05-02T17:37:11.227Z,3.63
2023-05-02T17:39:37.723Z,3.65
2023-05-02T17:42:04.321Z,4.60
2023-05-02T17:44:31.521Z,3.38
2023-05-02T17:46:58.169Z,3.60
2023-05-02T17:49:24.661Z,3.33
2023-05-02T17:51:51.110Z,3.10
2023-05-02T17:54:17.618Z,3.88
2023-05-02T17:56:44.340Z,2.78
2023-05-02T17:59:11.655Z,2.58
2023-05-02T18:01:38.614Z,2.33
2023-05-02T18:04:05.396Z,2.25
2023-05-02T18:06:32.100Z,2.63
2023-05-02T18:08:59.372Z,2.88
2023-05-02T18:11:27.290Z,2.80
2023-05-02T18:13:54.132Z,2.72
2023-05-02T18:16:20.688Z,2.70
2023-05-02T18:18:47.321Z,2.70
2023-05-02T18:21:21.273Z,3.63
2023-05-02T18:23:47.881Z,3.10
2023-05-02T18:26:14.405Z,6.88
2023-05-02T18:28:42.710Z,3.67
2023-05-02T18:31:19.796Z,4.28
2023-05-02T18:33:49.202Z,4.57
2023-05-02T18:36:27.402Z,4.10
2023-05-02T18:38:57.376Z,5.13
2023-05-02T18:41:23.958Z,4.53
2023-05-02T18:43:50.491Z,4.35
2023-05-02T18:46:17.023Z,4.30
2023-05-02T18:48:43.544Z,4.85
2023-05-02T18:51:10.722Z,5.38
2023-05-02T18:53:37.271Z,4.57
2023-05-02T18:56:04.021Z,6.00
2023-05-02T18:58:30.560Z,4.40
2023-05-02T19:00:57.198Z,4.53
2023-05-02T19:03:23.981Z,5.30
2023-05-02T19:05:51.279Z,4.97
2023-05-02T19:08:17.832Z,4.32
2023-05-02T19:10:44.314Z,5.15
2023-05-02T19:13:10.806Z,4.55
2023-05-02T19:15:37.443Z,5.65
2023-05-02T19:18:04.069Z,5.35
2023-05-02T19:20:30.680Z,4.85
2023-05-02T19:23:14.709Z,5.82
2023-05-02T19:25:44.391Z,5.22
2023-05-02T19:28:12.123Z,5.20
2023-05-02T19:30:42.342Z,5.18
2023-05-02T19:33:08.939Z,5.07
2023-05-02T19:35:38.724Z,5.10
2023-05-02T19:38:05.212Z,4.72
2023-05-02T19:40:31.697Z,6.00
2023-05-02T19:42:58.173Z,6.35
2023-05-02T19:45:24.711Z,5.22
2023-05-02T19:47:51.323Z,4.90
2023-05-02T19:50:17.841Z,4.40
2023-05-02T19:52:44.930Z,4.95
2023-05-02T19:55:11.504Z,4.30
2023-05-02T19:57:38.024Z,4.05
2023-05-02T20:00:05.915Z,3.88
2023-05-02T20:02:33.615Z,4.93
2023-05-02T20:05:00.235Z,4.20
2023-05-02T20:07:26.743Z,4.20
2023-05-02T20:09:53.397Z,3.90
2023-05-02T20:12:19.896Z,4.25
2023-05-02T20:14:46.378Z,3.90
2023-05-02T20:17:12.816Z,5.85
2023-05-02T20:19:39.364Z,4.03
2023-05-02T20:22:05.875Z,4.45
2023-05-02T20:24:32.384Z,4.50
2023-05-02T20:26:58.874Z,4.60
2023-05-02T20:29:25.405Z,3.88
2023-05-02T20:31:52.474Z,4.88
2023-05-02T20:34:20.816Z,4.82
2023-05-02T20:36:47.447Z,4.78
2023-05-02T20:39:14.282Z,4.03
2023-05-02T20:41:40.755Z,4.38
2023-05-02T20:44:07.250Z,4.07
2023-05-02T20:46:34.084Z,4.80
2023-05-02T20:49:00.647Z,4.47
2023-05-02T20:51:29.530Z,4.28
2023-05-02T20:53:56.277Z,4.40
2023-05-02T20:56:23.195Z,4.10
2023-05-02T20:58:49.690Z,4.75
2023-05-02T21:01:16.206Z,5.47
2023-05-02T21:03:42.762Z,5.35
2023-05-02T21:06:09.300Z,5.28
2023-05-02T21:08:36.415Z,5.05
2023-05-02T21:11:02.933Z,5.13
2023-05-02T21:13:29.394Z,7.05
2023-05-02T21:15:56.026Z,5.50
2023-05-02T21:18:22.650Z,4.90
2023-05-02T21:20:49.183Z,4.97
2023-05-02T21:23:15.656Z,4.80
2023-05-02T21:25:42.178Z,5.00
2023-05-02T21:28:08.752Z,5.60
2023-05-02T21:30:35.286Z,5.20
2023-05-02T21:33:01.901Z,5.68
2023-05-02T21:35:33.086Z,5.60
2023-05-02T21:37:59.896Z,4.80
2023-05-02T21:40:28.593Z,5.70
2023-05-02T21:42:55.114Z,5.30
2023-05-02T21:45:21.737Z,6.55
2023-05-02T21:47:48.267Z,5.15
2023-05-02T21:50:14.735Z,5.03
2023-05-02T21:52:41.221Z,5.63
2023-05-02T21:55:08.065Z,5.78
2023-05-02T21:57:34.521Z,5.68
2023-05-02T22:00:01.417Z,5.90
2023-05-02T22:02:28.231Z,5.18
2023-05-02T22:04:54.847Z,5.43
2023-05-02T22:07:21.410Z,5.13
2023-05-02T22:09:48.411Z,6.07
2023-05-02T22:12:14.920Z,5.25
2023-05-02T22:14:45.760Z,8.45
2023-05-02T22:17:13.241Z,6.25
2023-05-02T22:19:39.893Z,5.68
2023-05-02T22:22:06.590Z,5.88
2023-05-02T22:24:33.296Z,5.05
2023-05-02T22:26:59.792Z,4.88
2023-05-02T22:29:26.626Z,6.50
2023-05-02T22:31:53.111Z,6.00
2023-05-02T22:34:19.686Z,7.03
2023-05-02T22:36:46.237Z,5.95
2023-05-02T22:39:14.439Z,5.72
2023-05-02T22:41:44.275Z,6.07
2023-05-02T22:44:11.280Z,6.28
2023-05-02T22:46:38.717Z,7.55
2023-05-02T22:49:07.601Z,6.82
2023-05-02T22:51:34.062Z,6.30
2023-05-02T22:54:00.665Z,6.05
2023-05-02T22:56:27.189Z,5.43
2023-05-02T22:58:53.706Z,6.03
2023-05-02T23:01:20.394Z,6.55
2023-05-02T23:03:47.064Z,6.57
2023-05-02T23:06:14.368Z,6.55
2023-05-02T23:08:40.910Z,7.07
2023-05-02T23:11:07.358Z,5.95
2023-05-02T23:13:34.032Z,6.70
2023-05-02T23:16:00.898Z,7.25
2023-05-02T23:18:27.386Z,6.18
2023-05-02T23:20:53.938Z,6.25
2023-05-02T23:23:20.457Z,6.35
2023-05-02T23:25:46.935Z,7.25
2023-05-02T23:28:13.525Z,6.30
2023-05-02T23:30:40.245Z,6.07
2023-05-02T23:33:06.803Z,5.72
2023-05-02T23:35:33.363Z,5.07
2023-05-02T23:38:00.298Z,7.57
2023-05-02T23:40:29.913Z,5.25
2023-05-02T23:42:56.384Z,5.25
2023-05-02T23:45:22.831Z,6.22
2023-05-02T23:47:49.328Z,5.95
2023-05-02T23:50:15.887Z,5.40
2023-05-02T23:52:42.323Z,5.25
2023-05-02T23:55:10.673Z,5.82
2023-05-02T23:57:37.456Z,5.15
